地図

経路データ

SID SEASON NUMBER BASIN SUBBASIN NAME ISO_TIME NATURE LAT LON WMO_WIND WMO_PRES WMO_AGENCY TRACK_TYPE DIST2LAND LANDFALL IFLAG USA_AGENCY USA_ATCF_ID USA_LAT USA_LON USA_RECORD USA_STATUS USA_WIND USA_PRES USA_SSHS USA_R34_NE USA_R34_SE USA_R34_SW USA_R34_NW USA_R50_NE USA_R50_SE USA_R50_SW USA_R50_NW USA_R64_NE USA_R64_SE USA_R64_SW USA_R64_NW USA_POCI USA_ROCI USA_RMW USA_EYE TOKYO_LAT TOKYO_LON TOKYO_GRADE TOKYO_WIND TOKYO_PRES TOKYO_R50_DIR TOKYO_R50_LONG TOKYO_R50_SHORT TOKYO_R30_DIR TOKYO_R30_LONG TOKYO_R30_SHORT TOKYO_LAND CMA_LAT CMA_LON CMA_CAT CMA_WIND CMA_PRES HKO_LAT HKO_LON HKO_CAT HKO_WIND HKO_PRES NEWDELHI_LAT NEWDELHI_LON NEWDELHI_GRADE NEWDELHI_WIND NEWDELHI_PRES NEWDELHI_CI NEWDELHI_DP NEWDELHI_POCI REUNION_LAT REUNION_LON REUNION_TYPE REUNION_WIND REUNION_PRES REUNION_TNUM REUNION_CI REUNION_RMW REUNION_R34_NE REUNION_R34_SE REUNION_R34_SW REUNION_R34_NW REUNION_R50_NE REUNION_R50_SE REUNION_R50_SW REUNION_R50_NW REUNION_R64_NE REUNION_R64_SE REUNION_R64_SW REUNION_R64_NW BOM_LAT BOM_LON BOM_TYPE BOM_WIND BOM_PRES BOM_TNUM BOM_CI BOM_RMW BOM_R34_NE BOM_R34_SE BOM_R34_SW BOM_R34_NW BOM_R50_NE BOM_R50_SE BOM_R50_SW BOM_R50_NW BOM_R64_NE BOM_R64_SE BOM_R64_SW BOM_R64_NW BOM_ROCI BOM_POCI BOM_EYE BOM_POS_METHOD BOM_PRES_METHOD NADI_LAT NADI_LON NADI_CAT NADI_WIND NADI_PRES WELLINGTON_LAT WELLINGTON_LON WELLINGTON_WIND WELLINGTON_PRES DS824_LAT DS824_LON DS824_STAGE DS824_WIND DS824_PRES TD9636_LAT TD9636_LON TD9636_STAGE TD9636_WIND TD9636_PRES TD9635_LAT TD9635_LON TD9635_WIND TD9635_PRES TD9635_ROCI NEUMANN_LAT NEUMANN_LON NEUMANN_CLASS NEUMANN_WIND NEUMANN_PRES MLC_LAT MLC_LON MLC_CLASS MLC_WIND MLC_PRES USA_GUST BOM_GUST BOM_GUST_PER REUNION_GUST REUNION_GUST_PER USA_SEAHGT USA_SEARAD_NE USA_SEARAD_SE USA_SEARAD_SW USA_SEARAD_NW STORM_SPEED STORM_DIR
1932260N30318 1932 51 NA NA NOT_NAMED 1932-09-16 00:00:00 TS 30.4000 -41.6000 35 hurdat_atl main 2060 2025 O_____________ hurdat_atl AL071932 30.4000 -41.6000 TS 35 0 11 286
1932260N30318 1932 51 NA NA NOT_NAMED 1932-09-16 03:00:00 TS 30.5506 -42.1996 main 2015 1982 P_____________ AL071932 30.5506 -42.1996 TS 35 0 11 286
1932260N30318 1932 51 NA NA NOT_NAMED 1932-09-16 06:00:00 TS 30.7000 -42.8000 35 hurdat_atl main 1982 1949 O_____________ hurdat_atl AL071932 30.7000 -42.8000 TS 35 0 11 286
1932260N30318 1932 51 NA NA NOT_NAMED 1932-09-16 09:00:00 TS 30.8497 -43.4002 main 1949 1906 P_____________ AL071932 30.8497 -43.4002 TS 37 0 11 286
1932260N30318 1932 51 NA NA NOT_NAMED 1932-09-16 12:00:00 TS 31.0000 -44.0000 40 hurdat_atl main 1906 1875 O_____________ hurdat_atl AL071932 31.0000 -44.0000 TS 40 0 11 286
1932260N30318 1932 51 NA NA NOT_NAMED 1932-09-16 15:00:00 TS 31.1422 -44.6003 main 1875 1835 P_____________ AL071932 31.1422 -44.6003 TS 40 0 11 286
1932260N30318 1932 51 NA NA NOT_NAMED 1932-09-16 18:00:00 TS 31.3000 -45.2000 40 hurdat_atl main 1835 1795 O_____________ hurdat_atl AL071932 31.3000 -45.2000 TS 40 0 11 289
1932260N30318 1932 51 NA NA NOT_NAMED 1932-09-16 21:00:00 TS 31.4923 -45.8076 main 1795 1756 P_____________ AL071932 31.4923 -45.8076 TS 40 0 11 291
1932260N30318 1932 51 NA NA NOT_NAMED 1932-09-17 00:00:00 TS 31.7000 -46.4000 40 hurdat_atl main 1756 1721 O_____________ hurdat_atl AL071932 31.7000 -46.4000 TS 40 0 11 292
1932260N30318 1932 51 NA NA NOT_NAMED 1932-09-17 03:00:00 TS 31.8998 -46.9652 main 1719 1685 P_____________ AL071932 31.8998 -46.9652 TS 40 0 10 293
1932260N30318 1932 51 NA NA NOT_NAMED 1932-09-17 06:00:00 TS 32.1000 -47.5000 40 hurdat_atl main 1685 1651 O_____________ hurdat_atl AL071932 32.1000 -47.5000 TS 40 0 10 294
1932260N30318 1932 51 NA NA NOT_NAMED 1932-09-17 09:00:00 TS 32.3074 -48.0300 main 1651 1619 P_____________ AL071932 32.3074 -48.0300 TS 40 0 9 295
1932260N30318 1932 51 NA NA NOT_NAMED 1932-09-17 12:00:00 TS 32.5000 -48.5000 40 hurdat_atl main 1619 1600 O_____________ hurdat_atl AL071932 32.5000 -48.5000 TS 40 0 8 296
1932260N30318 1932 51 NA NA NOT_NAMED 1932-09-17 15:00:00 TS 32.6573 -48.8952 main 1589 1572 P_____________ AL071932 32.6573 -48.8952 TS 40 0 7 297
1932260N30318 1932 51 NA NA NOT_NAMED 1932-09-17 18:00:00 TS 32.8000 -49.2000 40 hurdat_atl main 1572 1558 O_____________ hurdat_atl AL071932 32.8000 -49.2000 TS 40 0 5 302
1932260N30318 1932 51 NA NA NOT_NAMED 1932-09-17 21:00:00 TS 32.9424 -49.4376 main 1558 1532 P_____________ AL071932 32.9424 -49.4376 TS 42 0 5 312
1932260N30318 1932 51 NA NA NOT_NAMED 1932-09-18 00:00:00 TS 33.1000 -49.6000 45 hurdat_atl main 1532 1509 O_____________ hurdat_atl AL071932 33.1000 -49.6000 TS 45 0 4 326
1932260N30318 1932 51 NA NA NOT_NAMED 1932-09-18 03:00:00 TS 33.2849 -49.7151 main 1509 1485 P_____________ AL071932 33.2849 -49.7151 TS 45 0 4 337
1932260N30318 1932 51 NA NA NOT_NAMED 1932-09-18 06:00:00 TS 33.5000 -49.8000 45 hurdat_atl main 1485 1462 O_____________ hurdat_atl AL071932 33.5000 -49.8000 TS 45 0 5 342
1932260N30318 1932 51 NA NA NOT_NAMED 1932-09-18 09:00:00 TS 33.7350 -49.8926 main 1462 1427 P_____________ AL071932 33.7350 -49.8926 TS 45 0 5 341
1932260N30318 1932 51 NA NA NOT_NAMED 1932-09-18 12:00:00 TS 34.0000 -50.0000 45 hurdat_atl main 1427 1393 O_____________ hurdat_atl AL071932 34.0000 -50.0000 TS 45 0 6 341
1932260N30318 1932 51 NA NA NOT_NAMED 1932-09-18 15:00:00 TS 34.2849 -50.1277 main 1393 1357 P_____________ AL071932 34.2849 -50.1277 TS 45 0 7 338
1932260N30318 1932 51 NA NA NOT_NAMED 1932-09-18 18:00:00 TS 34.6000 -50.3000 45 hurdat_atl main 1357 1321 O_____________ hurdat_atl AL071932 34.6000 -50.3000 TS 45 0 7 333
1932260N30318 1932 51 NA NA NOT_NAMED 1932-09-18 21:00:00 TS 34.9350 -50.5277 main 1321 1273 P_____________ AL071932 34.9350 -50.5277 TS 47 0 8 330
1932260N30318 1932 51 NA NA NOT_NAMED 1932-09-19 00:00:00 TS 35.3000 -50.8000 50 hurdat_atl main 1273 1225 O_____________ hurdat_atl AL071932 35.3000 -50.8000 TS 50 0 9 328
1932260N30318 1932 51 NA NA NOT_NAMED 1932-09-19 03:00:00 TS 35.6850 -51.0927 main 1225 1177 P_____________ AL071932 35.6850 -51.0927 TS 50 0 9 329
1932260N30318 1932 51 NA NA NOT_NAMED 1932-09-19 06:00:00 TS 36.1000 -51.4000 50 hurdat_atl main 1177 1130 O_____________ hurdat_atl AL071932 36.1000 -51.4000 TS 50 0 10 330
1932260N30318 1932 51 NA NA NOT_NAMED 1932-09-19 09:00:00 TS 36.5349 -51.6930 main 1130 1072 P_____________ AL071932 36.5349 -51.6930 TS 50 0 10 332
1932260N30318 1932 51 NA NA NOT_NAMED 1932-09-19 12:00:00 TS 37.0000 -52.0000 50 hurdat_atl main 1072 1025 O_____________ hurdat_atl AL071932 37.0000 -52.0000 TS 50 0 11 331
1932260N30318 1932 51 NA NA NOT_NAMED 1932-09-19 15:00:00 TS 37.4775 -52.3429 main 1014 957 P_____________ AL071932 37.4775 -52.3429 TS 50 0 11 331
1932260N30318 1932 51 NA NA NOT_NAMED 1932-09-19 18:00:00 TS 38.0000 -52.7000 50 hurdat_atl main 957 889 O_____________ hurdat_atl AL071932 38.0000 -52.7000 TS 50 0 12 334
1932260N30318 1932 51 NA NA NOT_NAMED 1932-09-19 21:00:00 TS 38.5923 -53.0429 main 889 822 P_____________ AL071932 38.5923 -53.0429 TS 50 0 13 335
1932260N30318 1932 51 NA NA NOT_NAMED 1932-09-20 00:00:00 TS 39.2000 -53.4000 50 hurdat_atl main 822 756 O_____________ hurdat_atl AL071932 39.2000 -53.4000 TS 50 0 13 334
1932260N30318 1932 51 NA NA NOT_NAMED 1932-09-20 03:00:00 TS 39.7874 -53.7925 main 756 702 P_____________ AL071932 39.7874 -53.7925 TS 50 0 13 331
1932260N30318 1932 51 NA NA NOT_NAMED 1932-09-20 06:00:00 TS 40.3000 -54.2000 50 hurdat_atl main 702 659 O_____________ hurdat_atl AL071932 40.3000 -54.2000 TS 50 0 11 328
1932260N30318 1932 51 NA NA NOT_NAMED 1932-09-20 09:00:00 TS 40.7321 -54.5776 main 660 631 P_____________ AL071932 40.7321 -54.5776 TS 50 0 9 319
1932260N30318 1932 51 NA NA NOT_NAMED 1932-09-20 12:00:00 TS 41.0000 -55.0000 50 hurdat_atl main 632 623 O_____________ hurdat_atl AL071932 41.0000 -55.0000 TS 50 0 8 298
1932260N30318 1932 51 NA NA NOT_NAMED 1932-09-20 15:00:00 TS 41.1045 -55.4969 main 629 617 P_____________ AL071932 41.1045 -55.4969 TS 50 0 8 270
1932260N30318 1932 51 NA NA NOT_NAMED 1932-09-20 18:00:00 TS 41.0000 -56.1000 50 hurdat_atl main 617 605 O_____________ hurdat_atl AL071932 41.0000 -56.1000 TS 50 0 11 249
1932260N30318 1932 51 NA NA NOT_NAMED 1932-09-20 21:00:00 TS 40.7247 -56.8051 main 609 605 P_____________ AL071932 40.7247 -56.8051 TS 52 0 13 238
1932260N30318 1932 51 NA NA NOT_NAMED 1932-09-21 00:00:00 TS 40.3000 -57.6000 55 hurdat_atl main 614 614 O_____________ hurdat_atl AL071932 40.3000 -57.6000 TS 55 0 15 234
1932260N30318 1932 51 NA NA NOT_NAMED 1932-09-21 03:00:00 TS 39.8072 -58.4354 main 639 636 P_____________ AL071932 39.8072 -58.4354 TS 55 0 16 233
1932260N30318 1932 51 NA NA NOT_NAMED 1932-09-21 06:00:00 TS 39.3000 -59.3000 55 hurdat_atl main 665 665 O_____________ hurdat_atl AL071932 39.3000 -59.3000 TS 55 0 17 234
1932260N30318 1932 51 NA NA NOT_NAMED 1932-09-21 09:00:00 TS 38.8252 -60.1882 main 673 662 P_____________ AL071932 38.8252 -60.1882 TS 55 0 15 239
1932260N30318 1932 51 NA NA NOT_NAMED 1932-09-21 12:00:00 TS 38.5000 -61.0000 55 hurdat_atl main 662 646 O_____________ hurdat_atl AL071932 38.5000 -61.0000 TS 55 0 12 251
1932260N30318 1932 51 NA NA NOT_NAMED 1932-09-21 15:00:00 TS 38.4244 -61.6658 main 642 613 P_____________ AL071932 38.4244 -61.6658 TS 55 0 9 270
1932260N30318 1932 51 NA NA NOT_NAMED 1932-09-21 18:00:00 TS 38.5000 -62.2000 55 hurdat_atl main 613 589 O_____________ hurdat_atl AL071932 38.5000 -62.2000 TS 55 0 8 281
1932260N30318 1932 51 NA NA NOT_NAMED 1932-09-21 21:00:00 TS 38.5697 -62.6525 main 586 567 P_____________ AL071932 38.5697 -62.6525 TS 52 0 7 288
1932260N30318 1932 51 NA NA NOT_NAMED 1932-09-22 00:00:00 TS 38.7000 -63.0000 50 hurdat_atl main 567 538 O_____________ hurdat_atl AL071932 38.7000 -63.0000 TS 50 0 6 303
1932260N30318 1932 51 NA NA NOT_NAMED 1932-09-22 03:00:00 TS 38.8848 -63.2726 main 538 511 P_____________ AL071932 38.8848 -63.2726 TS 50 0 6 316
1932260N30318 1932 51 NA NA NOT_NAMED 1932-09-22 06:00:00 TS 39.1000 -63.5000 50 hurdat_atl main 511 485 O_____________ hurdat_atl AL071932 39.1000 -63.5000 TS 50 0 6 319
1932260N30318 1932 51 NA NA NOT_NAMED 1932-09-22 09:00:00 TS 39.3074 -63.7501 main 483 457 P_____________ AL071932 39.3074 -63.7501 TS 50 0 6 316
1932260N30318 1932 51 NA NA NOT_NAMED 1932-09-22 12:00:00 TS 39.5000 -64.0000 50 hurdat_atl main 457 443 O_____________ hurdat_atl AL071932 39.5000 -64.0000 TS 50 0 5 312
1932260N30318 1932 51 NA NA NOT_NAMED 1932-09-22 15:00:00 TS 39.6574 -64.2502 main 430 416 P_____________ AL071932 39.6574 -64.2502 TS 50 0 5 308
1932260N30318 1932 51 NA NA NOT_NAMED 1932-09-22 18:00:00 TS 39.8000 -64.5000 50 hurdat_atl main 416 403 O_____________ hurdat_atl AL071932 39.8000 -64.5000 TS 50 0 5 306
1932260N30318 1932 51 NA NA NOT_NAMED 1932-09-22 21:00:00 TS 39.9425 -64.7576 main 402 379 P_____________ AL071932 39.9425 -64.7576 TS 47 0 5 308
1932260N30318 1932 51 NA NA NOT_NAMED 1932-09-23 00:00:00 ET 40.1000 -65.0000 45 hurdat_atl main 379 356 O_____________ hurdat_atl AL071932 40.1000 -65.0000 EX 45 -4 5 314
1932260N30318 1932 51 NA NA NOT_NAMED 1932-09-23 03:00:00 ET 40.2850 -65.2299 main 356 333 P_____________ AL071932 40.2850 -65.2299 EX 45 -4 5 323
1932260N30318 1932 51 NA NA NOT_NAMED 1932-09-23 06:00:00 ET 40.5000 -65.4000 45 hurdat_atl main 333 311 O_____________ hurdat_atl AL071932 40.5000 -65.4000 EX 45 -4 5 335
1932260N30318 1932 51 NA NA NOT_NAMED 1932-09-23 09:00:00 ET 40.7049 -65.4875 main 311 278 P_____________ AL071932 40.7049 -65.4875 EX 42 -4 5 351
1932260N30318 1932 51 NA NA NOT_NAMED 1932-09-23 12:00:00 ET 41.0000 -65.5000 40 hurdat_atl main 278 233 O_____________ hurdat_atl AL071932 41.0000 -65.5000 EX 40 -4 7 2
1932260N30318 1932 51 NA NA NOT_NAMED 1932-09-23 15:00:00 ET 41.3875 -65.4866 main 233 167 P_____________ AL071932 41.3875 -65.4866 EX 40 -4 10 5
1932260N30318 1932 51 NA NA NOT_NAMED 1932-09-23 18:00:00 ET 42.0000 -65.4000 40 hurdat_atl main 167 67 O_____________ hurdat_atl AL071932 42.0000 -65.4000 EX 40 -4 16 7
1932260N30318 1932 51 NA NA NOT_NAMED 1932-09-23 21:00:00 ET 42.9251 -65.2304 main 67 0 P_____________ AL071932 42.9251 -65.2304 EX 37 -4 20 8
1932260N30318 1932 51 NA NA NOT_NAMED 1932-09-24 00:00:00 ET 44.0000 -65.0000 35 hurdat_atl main 0 0 O_____________ hurdat_atl AL071932 44.0000 -65.0000 EX 35 -4 21 9
1932260N30318 1932 51 NA NA NOT_NAMED 1932-09-24 03:00:00 ET 45.0000 -64.7570 main 0 0 P_____________ AL071932 45.0000 -64.7570 EX 35 -4 20 10
1932260N30318 1932 51 NA NA NOT_NAMED 1932-09-24 06:00:00 ET 46.0000 -64.5000 35 hurdat_atl main 0 0 O_____________ hurdat_atl AL071932 46.0000 -64.5000 EX 35 -4 20 10
1932260N30318 1932 51 NA NA NOT_NAMED 1932-09-24 09:00:00 ET 46.9625 -64.2485 main 7 7 P_____________ AL071932 46.9625 -64.2485 EX 35 -4 20 10
1932260N30318 1932 51 NA NA NOT_NAMED 1932-09-24 12:00:00 ET 48.0000 -64.0000 35 hurdat_atl main 49 21 O_____________ hurdat_atl AL071932 48.0000 -64.0000 EX 35 -4 23 8
1932260N30318 1932 51 NA NA NOT_NAMED 1932-09-24 15:00:00 ET 49.1975 -63.7490 main 23 0 P_____________ AL071932 49.1975 -63.7490 EX 37 -4 25 7
1932260N30318 1932 51 NA NA NOT_NAMED 1932-09-24 18:00:00 ET 50.5000 -63.5000 40 hurdat_atl main 0 0 O_____________ hurdat_atl AL071932 50.5000 -63.5000 EX 40 -4 26 7
1932260N30318 1932 51 NA NA NOT_NAMED 1932-09-24 21:00:00 ET 51.8275 -63.2486 main 0 0 P_____________ AL071932 51.8275 -63.2486 EX 42 -4 27 7
1932260N30318 1932 51 NA NA NOT_NAMED 1932-09-25 00:00:00 ET 53.2000 -63.0000 45 hurdat_atl main 0 0 O_____________ hurdat_atl AL071932 53.2000 -63.0000 EX 45 -4 28 6
1932260N30318 1932 51 NA NA NOT_NAMED 1932-09-25 03:00:00 ET 54.5775 -62.7481 main 0 0 P_____________ AL071932 54.5775 -62.7481 EX 45 -4 28 6
1932260N30318 1932 51 NA NA NOT_NAMED 1932-09-25 06:00:00 ET 56.0000 -62.5000 45 hurdat_atl main 0 0 O_____________ hurdat_atl AL071932 56.0000 -62.5000 EX 45 -4 29 5
1932260N30318 1932 51 NA NA NOT_NAMED 1932-09-25 09:00:00 ET 57.5222 -62.2691 main 0 0 P_____________ AL071932 57.5222 -62.2691 EX 47 -4 30 5
1932260N30318 1932 51 NA NA NOT_NAMED 1932-09-25 12:00:00 ET 59.0000 -62.0000 50 hurdat_atl main 55 55 O_____________ hurdat_atl AL071932 59.0000 -62.0000 EX 50 -4 28 7
1932260N30318 1932 51 NA NA NOT_NAMED 1932-09-25 15:00:00 ET 60.3246 -61.6495 main 146 146 P_____________ AL071932 60.3246 -61.6495 EX 50 -4 25 9
1932260N30318 1932 51 NA NA NOT_NAMED 1932-09-25 18:00:00 ET 61.5000 -61.2000 50 hurdat_atl main 224 200 O_____________ hurdat_atl AL071932 61.5000 -61.2000 EX 50 -4 23 12
1932260N30318 1932 51 NA NA NOT_NAMED 1932-09-25 21:00:00 ET 62.5741 -60.6847 main 199 199 P_____________ AL071932 62.5741 -60.6847 EX 50 -4 21 15
1932260N30318 1932 51 NA NA NOT_NAMED 1932-09-26 00:00:00 ET 63.5000 -60.0000 50 hurdat_atl main 221 209 O_____________ hurdat_atl AL071932 63.5000 -60.0000 EX 50 -4 19 22
1932260N30318 1932 51 NA NA NOT_NAMED 1932-09-26 03:00:00 ET 64.3236 -59.1310 main 216 204 P_____________ AL071932 64.3236 -59.1310 EX 47 -4 17 30
1932260N30318 1932 51 NA NA NOT_NAMED 1932-09-26 06:00:00 ET 65.0000 -58.0000 45 hurdat_atl main 209 151 O_____________ hurdat_atl AL071932 65.0000 -58.0000 EX 45 -4 16 40
1932260N30318 1932 51 NA NA NOT_NAMED 1932-09-26 09:00:00 ET 65.5580 -56.6439 main 142 63 P_____________ AL071932 65.5580 -56.6439 EX 45 -4 16 51
1932260N30318 1932 51 NA NA NOT_NAMED 1932-09-26 12:00:00 ET 66.0000 -55.0000 45 hurdat_atl main 59 0 O_____________ hurdat_atl AL071932 66.0000 -55.0000 EX 45 -4 17 61
1932260N30318 1932 51 NA NA NOT_NAMED 1932-09-26 15:00:00 ET 66.3737 -53.0863 main 0 0 P_____________ AL071932 66.3737 -53.0863 EX 42 -4 17 66
1932260N30318 1932 51 NA NA NOT_NAMED 1932-09-26 18:00:00 ET 66.7000 -51.0000 40 hurdat_atl main 0 O_____________ hurdat_atl AL071932 66.7000 -51.0000 EX 40 -4 18 68

IBTrACS Databaseについて

本データベースは、米国NOAAが公開する1842年以降の世界の熱帯低気圧のベストトラックデータアーカイブInternational Best Track Archive for Climate Stewardship (IBTrACS)を、ウェブで閲覧しやすい形式に変換したものです。

最終更新日:2021-11-26